Time;durP1;ratioP1;P1;durP2;ratioP2;P2;SDS_P1;SDS_P2;PMS_P1;PMS_P2;Temp;Humidity;BMP_temperature;BMP_pressure;BME280_temperature;BME280_humidity;BME280_pressure;Samples;Min_cycle;Max_cycle;Signal;HPM_P1;HPM_P2
2023/06/10 00:00:47;;;;;;;9.23;4.60;;;;;;;17.63;nan;21124.19;5010557;28;20224;-56
2023/06/10 00:03:12;;;;;;;6.20;4.07;;;;;;;17.99;nan;23430.06;4995518;28;20223;-58
2023/06/10 00:05:38;;;;;;;7.22;4.55;;;;;;;18.02;nan;22777.03;4989066;28;20181;-57
2023/06/10 00:08:08;;;;;;;7.30;4.32;;;;;;;17.74;nan;21129.06;4995873;28;20196;-57
2023/06/10 00:10:38;;;;;;;7.45;4.63;;;;;;;17.93;nan;20157.28;4995392;28;20168;-57
2023/06/10 00:13:07;;;;;;;8.43;4.78;;;;;;;17.45;nan;18503.38;4995337;28;20220;-57
2023/06/10 00:15:33;;;;;;;6.78;3.95;;;;;;;17.51;nan;17200.44;4995477;28;20327;-57
2023/06/10 00:17:58;;;;;;;6.78;4.22;;;;;;;17.66;nan;15575.13;4994837;28;20232;-57
2023/06/10 00:20:24;;;;;;;6.28;4.45;;;;;;;17.69;nan;15902.31;4995309;28;20180;-57
2023/06/10 00:22:50;;;;;;;6.53;4.30;;;;;;;17.49;nan;18831.72;4995370;28;20620;-57
2023/06/10 00:25:16;;;;;;;6.57;4.25;;;;;;;17.54;nan;19486.88;4995317;28;20259;-57
2023/06/10 00:27:42;;;;;;;6.65;4.28;;;;;;;17.47;nan;17525.34;4995219;28;20187;-57
2023/06/10 00:30:08;;;;;;;7.50;4.70;;;;;;;17.60;nan;19162.72;4995350;28;20189;-57
2023/06/10 00:32:35;;;;;;;6.93;4.40;;;;;;;17.48;nan;17852.09;4994949;28;20292;-56
2023/06/10 00:35:01;;;;;;;6.20;4.30;;;;;;;17.73;nan;18841.75;4995578;28;20227;-56
2023/06/10 00:37:27;;;;;;;7.68;4.22;;;;;;;17.49;nan;18505.06;4995007;28;20688;-56
2023/06/10 00:39:52;;;;;;;7.90;4.80;;;;;;;17.61;nan;16878.31;4992830;28;20176;-57
2023/06/10 00:42:18;;;;;;;6.20;4.50;;;;;;;17.73;nan;18188.66;4992820;28;20187;-56
2023/06/10 00:44:43;;;;;;;7.18;4.75;;;;;;;17.38;nan;16869.03;4993314;28;20188;-57
2023/06/10 00:47:08;;;;;;;5.85;3.90;;;;;;;17.82;nan;19498.69;4994938;28;20633;-57
2023/06/10 00:49:34;;;;;;;6.80;3.92;;;;;;;17.82;nan;21786.53;4994747;28;20216;-56
2023/06/10 00:52:01;;;;;;;5.13;3.90;;;;;;;17.70;nan;20800.22;4995071;28;20235;-56
2023/06/10 00:54:27;;;;;;;6.35;3.80;;;;;;;17.54;nan;19486.88;4994466;28;20640;-56
2023/06/10 00:56:53;;;;;;;6.38;4.05;;;;;;;17.67;nan;18839.41;4994823;28;20251;-56
2023/06/10 00:59:19;;;;;;;6.75;4.13;;;;;;;17.27;nan;16864.72;4994466;28;20169;-57
2023/06/10 01:01:46;;;;;;;7.38;4.18;;;;;;;17.19;nan;15231.66;4993086;28;20227;-56
2023/06/10 01:04:12;;;;;;;6.90;4.50;;;;;;;17.36;nan;14259.94;4994516;28;20176;-56
2023/06/10 01:06:47;;;;;;;6.85;4.68;;;;;;;17.41;nan;13935.59;4994477;28;20724;-58
2023/06/10 01:09:45;;;;;;;9.98;4.82;;;;;;;17.55;nan;16549.66;4994067;28;20686;-56
2023/06/10 01:12:19;;;;;;;9.70;4.18;;;;;;;17.58;nan;17856.19;4994349;28;20188;-56
2023/06/10 01:14:45;;;;;;;6.15;3.97;;;;;;;17.65;nan;19818.31;4993501;28;20206;-57
2023/06/10 01:17:12;;;;;;;6.88;3.97;;;;;;;17.55;nan;18507.59;4987842;28;20216;-57
2023/06/10 01:19:38;;;;;;;6.30;4.43;;;;;;;17.54;nan;16875.53;4993092;28;20649;-56
2023/06/10 01:22:04;;;;;;;6.18;4.32;;;;;;;17.46;nan;15893.63;4994499;28;20184;-56
2023/06/10 01:24:33;;;;;;;7.40;4.28;;;;;;;17.44;nan;15893.03;4993955;28;20200;-56
2023/06/10 01:27:02;;;;;;;6.55;4.32;;;;;;;17.36;nan;14911.88;4994429;28;20177;-57
2023/06/10 01:29:37;;;;;;;6.38;4.40;;;;;;;17.36;nan;14259.94;4994143;28;20176;-57
2023/06/10 01:32:07;;;;;;;9.45;5.07;;;;;;;17.34;nan;14585.00;4994092;28;20243;-56
2023/06/10 01:34:34;;;;;;;6.32;4.20;;;;;;;17.19;nan;13602.38;4993798;28;20224;-58
2023/06/10 01:37:00;;;;;;;6.20;4.05;;;;;;;17.02;nan;12294.25;4993709;28;20679;-56
2023/06/10 01:39:26;;;;;;;6.35;4.57;;;;;;;17.18;nan;12299.34;4993902;28;20300;-57
2023/06/10 01:41:52;;;;;;;4.93;3.88;;;;;;;17.25;nan;11650.09;4994387;28;20169;-57
2023/06/10 01:44:22;;;;;;;6.80;4.45;;;;;;;16.97;nan;12292.66;4993684;28;20181;-57
2023/06/10 01:46:48;;;;;;;7.60;3.88;;;;;;;16.89;nan;12289.94;4993813;28;20621;-57
2023/06/10 01:49:14;;;;;;;7.00;4.22;;;;;;;16.97;nan;12292.50;4993799;28;20181;-57
2023/06/10 01:51:40;;;;;;;6.18;4.15;;;;;;;17.23;nan;11975.28;4993451;28;20227;-56
2023/06/10 01:54:06;;;;;;;5.97;4.47;;;;;;;17.25;nan;11975.75;4990546;28;20184;-57
2023/06/10 01:56:31;;;;;;;6.53;4.18;;;;;;;17.18;nan;13602.03;4993624;28;20196;-57
2023/06/10 01:58:59;;;;;;;6.93;4.85;;;;;;;17.31;nan;15888.13;4993300;28;20176;-56
2023/06/10 02:01:25;;;;;;;6.47;4.57;;;;;;;17.07;nan;14249.78;4992068;28;20614;-57
2023/06/10 02:03:51;;;;;;;5.90;4.28;;;;;;;16.96;nan;13594.72;4993272;28;20234;-57
2023/06/10 02:06:16;;;;;;;6.53;4.40;;;;;;;17.20;nan;12299.97;4993300;28;20180;-57
2023/06/10 02:08:43;;;;;;;6.68;4.30;;;;;;;16.92;nan;11639.94;4993110;28;20231;-57
2023/06/10 02:11:08;;;;;;;6.10;3.85;;;;;;;17.18;nan;11322.53;5008959;28;20177;-56
2023/06/10 02:13:33;;;;;;;6.28;4.10;;;;;;;17.03;nan;12945.75;4993587;28;20616;-57
2023/06/10 02:15:59;;;;;;;5.95;4.13;;;;;;;17.18;nan;13602.03;4993376;28;20202;-55
2023/06/10 02:18:26;;;;;;;6.07;4.13;;;;;;;17.30;nan;14257.66;4993227;28;20188;-55
2023/06/10 02:20:52;;;;;;;7.22;4.45;;;;;;;17.13;nan;12623.38;4992260;28;20208;-58
2023/06/10 02:23:17;;;;;;;6.50;4.40;;;;;;;17.15;nan;10670.47;4993126;28;20640;-56
2023/06/10 02:25:43;;;;;;;6.38;4.38;;;;;;;17.21;nan;10021.44;4993011;28;20178;-57
2023/06/10 02:28:08;;;;;;;8.82;3.92;;;;;;;17.23;nan;9696.56;4990212;28;20243;-57
2023/06/10 02:30:34;;;;;;;11.13;4.45;;;;;;;17.19;nan;9044.59;4998788;28;20185;-56
2023/06/10 02:33:00;;;;;;;6.72;4.20;;;;;;;16.94;nan;9363.31;4993114;28;20168;-57
2023/06/10 02:35:26;;;;;;;7.20;4.50;;;;;;;17.25;nan;10022.41;4992919;28;20177;-56
2023/06/10 02:37:51;;;;;;;6.50;4.03;;;;;;;17.13;nan;8717.72;4991714;28;20733;-57
2023/06/10 02:40:17;;;;;;;6.63;4.50;;;;;;;17.18;nan;7743.41;4991272;28;20177;-57
2023/06/10 02:42:42;;;;;;;6.07;4.30;;;;;;;17.17;nan;7092.72;4992401;28;20176;-57
2023/06/10 02:45:08;;;;;;;5.90;4.00;;;;;;;17.26;nan;7420.00;4992410;28;20164;-58
2023/06/10 02:47:33;;;;;;;7.05;4.20;;;;;;;17.27;nan;7420.25;4992748;28;20252;-56
2023/06/10 02:49:59;;;;;;;6.30;4.57;;;;;;;17.39;nan;8724.47;4991980;28;20172;-57
2023/06/10 02:52:24;;;;;;;7.82;4.05;;;;;;;17.42;nan;8725.13;4992190;28;20184;-57
2023/06/10 02:54:50;;;;;;;6.03;4.35;;;;;;;17.26;nan;9046.31;4992298;28;20246;-57
2023/06/10 02:57:15;;;;;;;6.05;4.03;;;;;;;17.60;nan;11009.34;4992183;28;20197;-56
2023/06/10 02:59:41;;;;;;;6.75;4.50;;;;;;;17.49;nan;19158.19;4992127;28;20172;-56
2023/06/10 03:02:07;;;;;;;5.72;3.75;;;;;;;17.76;nan;21129.75;4992124;28;20220;-57
2023/06/10 03:04:33;;;;;;;9.88;4.53;;;;;;;17.49;nan;22097.88;4991882;28;20196;-56
2023/06/10 03:07:00;;;;;;;6.82;4.55;;;;;;;17.71;nan;19820.75;4992264;28;20577;-56
2023/06/10 03:09:25;;;;;;;5.95;4.15;;;;;;;17.44;nan;18829.59;4985393;28;20180;-56
2023/06/10 03:11:51;;;;;;;7.25;4.80;;;;;;;17.37;nan;17195.06;4991201;28;20193;-56
2023/06/10 03:14:16;;;;;;;6.18;4.25;;;;;;;17.43;nan;21768.25;4992630;28;20271;-58
2023/06/10 03:16:42;;;;;;;5.13;3.90;;;;;;;17.45;nan;19809.47;4992306;28;20224;-57
2023/06/10 03:19:08;;;;;;;5.93;4.10;;;;;;;16.72;nan;19125.44;4992124;28;20660;-57
2023/06/10 03:21:34;;;;;;;6.07;4.47;;;;;;;16.47;nan;18462.81;4992545;28;20230;-57
2023/06/10 03:24:00;;;;;;;6.80;4.43;;;;;;;17.04;nan;17508.16;4992241;28;20173;-56
2023/06/10 03:26:27;;;;;;;6.72;4.50;;;;;;;17.26;nan;16212.13;4992083;28;20248;-56
2023/06/10 03:28:53;;;;;;;7.20;4.43;;;;;;;17.28;nan;16538.97;4992036;28;20177;-57
2023/06/10 03:31:18;;;;;;;6.13;4.15;;;;;;;17.60;nan;18183.47;4992742;28;20183;-57
2023/06/10 03:33:44;;;;;;;5.13;3.95;;;;;;;17.72;nan;21127.91;4996030;28;20654;-56
2023/06/10 03:36:09;;;;;;;7.18;4.50;;;;;;;17.74;nan;20802.03;4996051;28;20173;-56
2023/06/10 03:38:35;;;;;;;6.10;4.30;;;;;;;17.66;nan;18838.97;4995871;28;20187;-57
2023/06/10 03:41:01;;;;;;;6.78;4.38;;;;;;;17.74;nan;17862.56;4996459;28;20251;-57
2023/06/10 03:43:27;;;;;;;7.05;4.97;;;;;;;17.84;nan;18519.59;4996223;28;20621;-57
2023/06/10 03:45:53;;;;;;;7.05;4.25;;;;;;;17.71;nan;21781.09;4995831;28;20499;-58
2023/06/10 03:48:18;;;;;;;6.65;4.38;;;;;;;;;;4989009;28;20180;-56
2023/06/10 03:50:43;;;;;;;6.10;4.30;;;;;;;17.83;nan;24076.03;4996266;28;20180;-56
2023/06/10 03:53:09;;;;;;;5.47;4.18;;;;;;;18.15;nan;20820.84;4995884;28;20169;-57
2023/06/10 03:55:36;;;;;;;10.25;4.47;;;;;;;18.00;nan;18199.66;4995977;28;20187;-57
2023/06/10 03:58:01;;;;;;;8.07;4.18;;;;;;;18.33;nan;18540.25;4995844;28;20207;-56
2023/06/10 04:00:27;;;;;;;8.07;4.25;;;;;;;18.37;nan;19522.53;4995308;28;20605;-57
2023/06/10 04:02:52;;;;;;;6.18;3.92;;;;;;;18.25;nan;21152.28;4995346;28;20223;-56
2023/06/10 04:05:21;;;;;;;8.50;4.22;;;;;;;18.50;nan;26403.72;4995876;28;20609;-58
2023/06/10 04:07:48;;;;;;;6.00;4.15;;;;;;;18.39;nan;28364.00;4995656;28;20187;-57
2023/06/10 04:10:14;;;;;;;5.40;3.83;;;;;;;18.75;nan;35609.75;4995604;28;20327;-57
2023/06/10 04:12:41;;;;;;;5.70;3.90;;;;;;;17.85;nan;39221.94;4995091;28;20177;-56
2023/06/10 04:15:07;;;;;;;5.63;3.97;;;;;;;18.56;nan;34939.16;4995153;28;20180;-57
2023/06/10 04:17:33;;;;;;;6.53;4.65;;;;;;;18.84;nan;32329.88;4995234;28;20207;-56
2023/06/10 04:19:58;;;;;;;6.35;4.40;;;;;;;18.71;nan;30679.41;4995246;28;20180;-57
2023/06/10 04:22:24;;;;;;;5.45;3.90;;;;;;;19.05;nan;32014.28;4991588;28;20703;-58
2023/06/10 04:24:49;;;;;;;6.70;4.40;;;;;;;19.04;nan;33328.16;4990871;28;20535;-57
2023/06/10 04:27:15;;;;;;;4.97;3.67;;;;;;;18.91;nan;35621.34;4995239;28;20618;-57
2023/06/10 04:29:41;;;;;;;5.43;3.90;;;;;;;19.24;nan;36301.97;4995755;28;20169;-57
2023/06/10 04:32:07;;;;;;;5.82;4.40;;;;;;;19.04;nan;35629.81;4994529;28;20556;-57
2023/06/10 04:34:35;;;;;;;7.05;4.10;;;;;;;19.38;nan;35324.97;4994927;28;20176;-57
2023/06/10 04:37:01;;;;;;;6.88;4.07;;;;;;;19.24;nan;35644.22;4994832;28;20228;-57
2023/06/10 04:39:27;;;;;;;6.20;4.00;;;;;;;19.49;nan;34345.06;4994963;28;20169;-57
2023/06/10 04:41:52;;;;;;;5.55;3.88;;;;;;;19.56;nan;35007.69;4994939;28;20172;-56
2023/06/10 04:44:18;;;;;;;9.23;5.45;;;;;;;19.53;nan;40448.59;4994032;28;20644;-57
2023/06/10 04:46:44;;;;;;;7.32;4.63;;;;;;;19.50;nan;44107.38;4994634;28;20184;-56
2023/06/10 04:49:09;;;;;;;7.40;4.63;;;;;;;19.60;nan;47232.53;4992686;28;20302;-58
2023/06/10 04:51:35;;;;;;;4.90;3.95;;;;;;;20.04;nan;49648.00;4993375;28;20566;-57
2023/06/10 04:54:03;;;;;;;6.75;4.40;;;;;;;19.89;nan;46555.31;4994587;28;20712;-59
2023/06/10 04:56:30;;;;;;;5.97;3.97;;;;;;;19.93;nan;49629.97;4994396;28;20204;-58
2023/06/10 04:58:59;;;;;;;6.45;4.63;;;;;;;20.22;nan;52792.47;4989136;28;20185;-59
2023/06/10 05:01:24;;;;;;;7.80;4.30;;;;;;;20.48;nan;54730.88;4994314;28;20236;-58
2023/06/10 05:03:50;;;;;;;5.45;4.03;;;;;;;20.53;nan;55327.16;4994434;28;20180;-59
2023/06/10 05:06:15;;;;;;;7.95;3.78;;;;;;;20.62;nan;55633.94;4994446;28;20208;-59
2023/06/10 05:08:40;;;;;;;6.05;4.10;;;;;;;20.84;nan;57450.63;4994390;28;20691;-58
2023/06/10 05:11:06;;;;;;;5.85;4.07;;;;;;;20.66;nan;58648.44;4994153;28;20187;-59
2023/06/10 05:13:31;;;;;;;8.25;4.72;;;;;;;20.70;nan;58855.66;4994013;28;20265;-58
2023/06/10 05:15:57;;;;;;;6.47;4.30;;;;;;;20.90;nan;59336.22;4994097;28;20659;-59
2023/06/10 05:18:22;;;;;;;11.05;5.97;;;;;;;20.96;nan;59954.94;4993877;28;20683;-59
2023/06/10 05:20:49;;;;;;;7.88;5.53;;;;;;;21.39;nan;60124.59;4994009;28;20176;-57
2023/06/10 05:23:14;;;;;;;8.50;5.78;;;;;;;21.41;nan;60123.66;4993920;28;20250;-57
2023/06/10 05:25:41;;;;;;;10.40;5.15;;;;;;;21.41;nan;60110.69;4994135;28;20644;-58
2023/06/10 05:28:09;;;;;;;9.15;5.40;;;;;;;21.68;nan;60312.13;4993958;28;20195;-59
2023/06/10 05:30:35;;;;;;;9.52;4.47;;;;;;;21.56;nan;60372.13;4992252;28;20187;-58
2023/06/10 05:33:01;;;;;;;8.88;4.78;;;;;;;21.72;nan;60531.81;4993397;28;20260;-57
2023/06/10 05:35:26;;;;;;;6.03;4.25;;;;;;;22.11;nan;60609.09;4987264;28;20180;-58
2023/06/10 05:37:52;;;;;;;5.32;4.10;;;;;;;21.77;nan;60753.75;4993230;28;20715;-57
2023/06/10 05:40:17;;;;;;;6.88;4.70;;;;;;;21.60;nan;60700.94;4993363;28;20188;-57
2023/06/10 05:42:42;;;;;;;6.03;4.15;;;;;;;21.59;nan;60718.03;4993355;28;20211;-59
2023/06/10 05:45:08;;;;;;;7.85;4.32;;;;;;;21.83;nan;60718.84;4993278;28;20644;-57
2023/06/10 05:47:34;;;;;;;6.38;4.43;;;;;;;21.87;nan;60725.38;4993355;28;20184;-57
2023/06/10 05:49:59;;;;;;;6.55;4.15;;;;;;;22.08;nan;60925.75;4993537;28;20226;-58
2023/06/10 05:52:25;;;;;;;7.45;4.30;;;;;;;22.46;nan;60983.41;4993167;28;20264;-58
2023/06/10 05:54:51;;;;;;;5.80;4.10;;;;;;;22.23;nan;60867.09;4992279;28;20621;-59
2023/06/10 05:57:16;;;;;;;9.45;4.28;;;;;;;21.78;nan;60738.72;4992991;28;20336;-59
2023/06/10 05:59:42;;;;;;;5.45;3.88;;;;;;;22.18;nan;60632.53;4992945;28;20536;-58
2023/06/10 06:02:07;;;;;;;10.38;4.20;;;;;;;22.30;nan;60819.72;4993016;28;20588;-58
2023/06/10 06:04:34;;;;;;;5.70;4.03;;;;;;;21.90;nan;60791.69;4993045;28;20172;-59
2023/06/10 06:06:59;;;;;;;5.38;3.97;;;;;;;22.87;nan;61032.00;4993221;28;20183;-58
2023/06/10 06:09:25;;;;;;;5.07;3.92;;;;;;;23.04;nan;61018.66;4992580;28;20184;-60
2023/06/10 06:11:50;;;;;;;6.30;4.18;;;;;;;23.49;nan;61173.47;4992680;28;20173;-58
2023/06/10 06:14:15;;;;;;;5.50;3.97;;;;;;;23.92;nan;61445.66;4986289;28;20567;-58
2023/06/10 06:16:41;;;;;;;6.18;4.80;;;;;;;24.30;nan;61537.63;4992252;28;20243;-59
2023/06/10 06:19:06;;;;;;;8.52;4.38;;;;;;;24.89;nan;61708.28;4986130;28;20177;-58
2023/06/10 06:21:32;;;;;;;5.88;4.18;;;;;;;24.70;nan;61783.44;4993004;28;20223;-58
2023/06/10 06:23:57;;;;;;;8.95;4.50;;;;;;;24.99;nan;61821.56;4992740;28;20181;-58
2023/06/10 06:26:23;;;;;;;6.57;4.28;;;;;;;24.92;nan;61897.28;4992384;28;20176;-58
2023/06/10 06:28:48;;;;;;;6.25;4.45;;;;;;;24.86;nan;61910.81;4992574;28;20235;-58
2023/06/10 06:31:14;;;;;;;6.93;4.53;;;;;;;25.00;nan;61937.16;4992485;28;20182;-57
2023/06/10 06:33:39;;;;;;;6.13;4.43;;;;;;;25.03;nan;62003.31;4991945;28;20176;-57
2023/06/10 06:36:05;;;;;;;5.78;4.55;;;;;;;25.21;nan;62023.78;4992503;28;20200;-59
2023/06/10 06:38:30;;;;;;;7.70;4.88;;;;;;;24.68;nan;61984.47;4992412;28;20212;-58
2023/06/10 06:40:56;;;;;;;7.82;5.03;;;;;;;25.21;nan;62044.72;4992164;28;20203;-59
2023/06/10 06:43:22;;;;;;;6.95;4.57;;;;;;;25.33;nan;62139.47;4991847;28;20169;-59
2023/06/10 06:45:47;;;;;;;6.97;4.57;;;;;;;25.49;nan;62228.34;4991873;28;20207;-59
2023/06/10 06:48:12;;;;;;;7.75;5.30;;;;;;;25.54;nan;62259.66;4992326;28;20319;-58
2023/06/10 06:50:38;;;;;;;7.10;4.88;;;;;;;26.08;nan;62419.66;4992049;28;20157;-58
2023/06/10 06:53:04;;;;;;;10.73;4.60;;;;;;;26.27;nan;62384.28;4991946;28;20185;-57
2023/06/10 06:55:30;;;;;;;7.32;4.57;;;;;;;26.42;nan;62405.53;4991693;28;20244;-59
2023/06/10 06:57:55;;;;;;;8.10;4.20;;;;;;;26.94;nan;62464.97;4991901;28;20287;-58
2023/06/10 07:00:21;;;;;;;5.68;4.70;;;;;;;26.68;nan;62713.75;4991922;28;20184;-57
2023/06/10 07:02:46;;;;;;;9.50;4.90;;;;;;;26.61;nan;62558.31;4992009;28;20188;-58
2023/06/10 07:05:12;;;;;;;8.70;4.60;;;;;;;26.86;nan;62520.81;4992014;28;20176;-58
2023/06/10 07:07:37;;;;;;;5.97;4.25;;;;;;;26.61;nan;62535.28;4991678;28;20718;-59
2023/06/10 07:10:03;;;;;;;8.25;4.82;;;;;;;26.81;nan;62465.81;4992015;28;20218;-58
2023/06/10 07:12:28;;;;;;;6.60;4.53;;;;;;;26.28;nan;62539.47;4991713;28;20176;-58
2023/06/10 07:14:53;;;;;;;7.72;4.97;;;;;;;26.61;nan;62490.72;4992296;28;20230;-57
2023/06/10 07:17:19;;;;;;;8.25;4.72;;;;;;;26.18;nan;62423.78;4991795;28;20216;-59
2023/06/10 07:19:45;;;;;;;8.10;4.68;;;;;;;26.11;nan;62381.72;4991959;28;20563;-59
2023/06/10 07:22:10;;;;;;;8.68;5.00;;;;;;;26.43;nan;62396.19;4983808;28;20570;-58
2023/06/10 07:24:36;;;;;;;6.90;4.85;;;;;;;26.47;nan;62447.94;4991685;28;20173;-57
2023/06/10 07:27:01;;;;;;;8.63;4.70;;;;;;;26.50;nan;62465.03;4991627;28;20173;-58
2023/06/10 07:29:27;;;;;;;6.40;4.72;;;;;;;26.89;nan;62590.41;4991391;28;20254;-58
2023/06/10 07:31:53;;;;;;;7.15;4.30;;;;;;;26.68;nan;62503.97;4991568;28;20176;-59
2023/06/10 07:34:18;;;;;;;5.70;4.40;;;;;;;26.68;nan;62437.84;4991864;28;20180;-57
2023/06/10 07:36:44;;;;;;;6.25;4.70;;;;;;;26.58;nan;62421.19;4991711;28;20204;-56
2023/06/10 07:39:10;;;;;;;6.60;4.43;;;;;;;26.66;nan;62493.25;4991749;28;20247;-56
2023/06/10 07:41:35;;;;;;;6.97;4.25;;;;;;;26.43;nan;62433.47;4991911;28;20176;-58
2023/06/10 07:44:00;;;;;;;6.43;4.15;;;;;;;26.83;nan;62578.25;4991477;28;20200;-58
2023/06/10 07:46:27;;;;;;;6.47;4.40;;;;;;;26.78;nan;62591.47;4991342;28;20231;-57
2023/06/10 07:48:53;;;;;;;7.45;4.13;;;;;;;26.88;nan;62567.69;5006369;28;20176;-58
2023/06/10 07:51:19;;;;;;;9.05;4.57;;;;;;;26.54;nan;62495.84;4991483;28;20177;-58
2023/06/10 07:53:44;;;;;;;6.80;4.28;;;;;;;26.61;nan;62469.75;4991450;28;20557;-58
2023/06/10 07:56:10;;;;;;;6.28;4.40;;;;;;;27.23;nan;62555.28;4991997;28;20549;-57
2023/06/10 07:58:35;;;;;;;6.32;4.47;;;;;;;26.81;nan;62508.34;4991378;28;20294;-58
2023/06/10 08:01:01;;;;;;;5.88;4.20;;;;;;;26.82;nan;62493.16;4991169;28;20592;-59
2023/06/10 08:03:26;;;;;;;5.05;3.92;;;;;;;26.95;nan;62544.22;4992020;28;20260;-59
2023/06/10 08:05:51;;;;;;;7.25;4.05;;;;;;;26.96;nan;62530.19;4991559;28;20559;-58
2023/06/10 08:08:17;;;;;;;7.15;4.38;;;;;;;27.32;nan;62628.56;4991310;28;20196;-58
2023/06/10 08:10:42;;;;;;;7.25;4.43;;;;;;;27.58;nan;62637.34;4991239;28;20620;-59
2023/06/10 08:13:08;;;;;;;4.50;3.83;;;;;;;28.06;nan;62838.38;4990404;28;20282;-58
2023/06/10 08:15:34;;;;;;;9.25;5.57;;;;;;;28.10;nan;62670.09;4991316;28;20169;-58
2023/06/10 08:17:59;;;;;;;7.40;5.28;;;;;;;28.10;nan;62690.50;4991508;28;20207;-57
2023/06/10 08:20:25;;;;;;;5.32;4.35;;;;;;;28.22;nan;62708.94;4994957;28;20172;-59
2023/06/10 08:22:50;;;;;;;5.60;3.60;;;;;;;28.44;nan;62592.72;4994830;28;20177;-58
2023/06/10 08:25:16;;;;;;;4.60;3.38;;;;;;;28.56;nan;62716.38;4994738;28;20204;-58
2023/06/10 08:27:41;;;;;;;5.78;3.65;;;;;;;28.52;nan;62807.03;4994173;28;20534;-58
2023/06/10 08:30:08;;;;;;;3.95;3.33;;;;;;;26.44;nan;62874.41;4994597;28;20687;-58
2023/06/10 08:32:33;;;;;;;5.25;3.60;;;;;;;29.24;nan;62974.84;4994849;28;20223;-57
2023/06/10 08:34:59;;;;;;;6.30;3.88;;;;;;;29.49;nan;63037.88;4994135;28;20649;-58
2023/06/10 08:37:24;;;;;;;5.53;3.80;;;;;;;29.91;nan;63061.34;4994281;28;20735;-58
2023/06/10 08:39:49;;;;;;;4.88;3.38;;;;;;;30.37;nan;62911.16;4993943;28;20263;-58
2023/06/10 08:42:15;;;;;;;5.80;3.47;;;;;;;29.96;nan;62961.66;4994539;28;20571;-58
2023/06/10 08:44:42;;;;;;;5.47;3.75;;;;;;;29.28;nan;62787.78;4993669;28;20270;-59
2023/06/10 08:47:16;;;;;;;4.78;3.60;;;;;;;29.63;nan;62942.75;4994393;28;20184;-58
2023/06/10 08:49:46;;;;;;;5.18;3.22;;;;;;;29.35;nan;62848.53;4994249;28;20557;-59
2023/06/10 08:52:17;;;;;;;4.85;3.50;;;;;;;28.99;nan;62794.59;4993964;28;20258;-58
2023/06/10 08:55:02;;;;;;;5.00;3.30;;;;;;;29.71;nan;63039.47;4993909;28;20164;-58
2023/06/10 08:57:30;;;;;;;5.35;3.47;;;;;;;30.10;nan;63064.75;4994250;28;20200;-59
2023/06/10 08:59:57;;;;;;;4.88;3.30;;;;;;;29.32;nan;62912.97;4994181;28;20169;-58
2023/06/10 09:02:24;;;;;;;4.00;3.10;;;;;;;28.54;nan;62767.25;4994413;28;20215;-57
2023/06/10 09:04:50;;;;;;;4.68;3.10;;;;;;;28.56;nan;62795.28;4992940;28;20647;-59
2023/06/10 09:07:16;;;;;;;5.78;3.00;;;;;;;28.87;nan;62907.16;4994235;28;20282;-57
2023/06/10 09:09:43;;;;;;;4.32;3.08;;;;;;;28.59;nan;62784.97;4994235;28;20723;-57
2023/06/10 09:12:09;;;;;;;4.95;3.10;;;;;;;29.15;nan;62996.09;4994764;28;20164;-58
2023/06/10 09:14:34;;;;;;;4.38;3.30;;;;;;;29.93;nan;62966.66;4994615;28;20188;-59
2023/06/10 09:17:00;;;;;;;6.95;3.63;;;;;;;29.81;nan;62995.03;4992339;28;20201;-60
2023/06/10 09:19:28;;;;;;;5.43;3.63;;;;;;;29.81;nan;63126.84;4989131;28;20180;-59
2023/06/10 09:21:53;;;;;;;6.00;3.72;;;;;;;29.84;nan;63006.41;4993474;28;20643;-59
2023/06/10 09:24:19;;;;;;;5.40;3.75;;;;;;;29.47;nan;62951.28;4993979;28;20206;-57
2023/06/10 09:26:45;;;;;;;5.72;3.75;;;;;;;29.73;nan;62970.59;4994408;28;20191;-57
2023/06/10 09:29:11;;;;;;;9.52;3.97;;;;;;;29.49;nan;62932.50;4993590;28;20182;-60
2023/06/10 09:31:39;;;;;;;4.82;3.42;;;;;;;29.59;nan;62915.00;4993813;28;20172;-58
2023/06/10 09:34:13;;;;;;;4.82;3.60;;;;;;;29.65;nan;62887.63;4993916;28;20184;-57
2023/06/10 09:36:39;;;;;;;7.25;3.90;;;;;;;28.88;nan;63081.44;4993650;28;20291;-59
2023/06/10 09:39:13;;;;;;;5.32;3.83;;;;;;;27.43;nan;62593.31;4993856;28;20271;-58
2023/06/10 09:41:43;;;;;;;6.60;3.63;;;;;;;25.92;nan;62386.81;4992244;28;20628;-57
2023/06/10 09:44:19;;;;;;;6.53;3.75;;;;;;;25.36;nan;62307.13;4992548;28;20249;-58
2023/06/10 09:46:46;;;;;;;6.32;3.78;;;;;;;25.28;nan;62251.50;4992685;28;20667;-59
2023/06/10 09:49:13;;;;;;;5.57;3.47;;;;;;;25.31;nan;62408.69;4992879;28;20169;-58
2023/06/10 09:51:55;;;;;;;5.70;3.45;;;;;;;25.72;nan;62308.97;4993301;28;20173;-58
2023/06/10 09:54:21;;;;;;;4.20;3.25;;;;;;;25.88;nan;62402.63;4991925;28;20172;-58
2023/06/10 09:56:51;;;;;;;4.43;3.33;;;;;;;25.41;nan;62653.63;4993582;28;20204;-57
2023/06/10 09:59:31;;;;;;;4.97;3.35;;;;;;;25.75;nan;62671.13;4994470;28;20176;-57
2023/06/10 10:01:57;;;;;;;7.32;3.70;;;;;;;22.48;nan;63947.03;4993476;28;20220;-57
2023/06/10 10:04:25;;;;;;;6.25;3.60;;;;;;;26.10;nan;62366.91;4993421;28;20330;-57
2023/06/10 10:06:50;;;;;;;4.88;3.38;;;;;;;26.74;nan;62516.06;4993220;28;20185;-58
2023/06/10 10:09:16;;;;;;;4.25;3.25;;;;;;;26.82;nan;62519.41;4991311;28;20192;-58
2023/06/10 10:11:43;;;;;;;4.25;3.33;;;;;;;26.90;nan;62583.09;4991766;28;20191;-57
2023/06/10 10:14:10;;;;;;;4.97;3.53;;;;;;;26.74;nan;62395.44;4992849;28;20180;-57
2023/06/10 10:16:38;;;;;;;5.18;3.50;;;;;;;26.94;nan;62517.41;4992875;28;20183;-58
2023/06/10 10:19:23;;;;;;;5.43;3.72;;;;;;;26.97;nan;62654.06;4992848;28;20192;-58
2023/06/10 10:22:01;;;;;;;5.63;3.70;;;;;;;26.99;nan;62488.47;4992900;28;20252;-58
2023/06/10 10:24:35;;;;;;;4.90;3.58;;;;;;;27.49;nan;62645.44;4993475;28;20243;-58
2023/06/10 10:27:06;;;;;;;7.05;4.18;;;;;;;26.77;nan;62466.50;4993346;28;20172;-57
2023/06/10 10:29:38;;;;;;;5.88;3.80;;;;;;;27.19;nan;62585.38;4993091;28;20615;-58
2023/06/10 10:32:06;;;;;;;6.32;4.20;;;;;;;27.67;nan;62694.94;4993433;28;20191;-58
2023/06/10 10:35:02;;;;;;;6.85;3.90;;;;;;;27.40;nan;62673.91;4992864;28;20188;-58
2023/06/10 10:37:28;;;;;;;4.20;3.17;;;;;;;27.19;nan;62671.41;4993190;28;20203;-58
2023/06/10 10:39:54;;;;;;;5.50;3.55;;;;;;;27.89;nan;62676.94;4993054;28;20187;-58
2023/06/10 10:42:20;;;;;;;4.78;3.20;;;;;;;28.20;nan;62738.78;4992344;28;20268;-58
2023/06/10 10:44:46;;;;;;;5.35;3.42;;;;;;;28.55;nan;62820.41;4992732;28;20264;-58
2023/06/10 10:47:13;;;;;;;4.70;3.28;;;;;;;28.32;nan;62692.06;4992453;28;20183;-59
2023/06/10 10:49:42;;;;;;;5.50;3.97;;;;;;;28.78;nan;62788.94;4992179;28;20180;-57
2023/06/10 10:52:12;;;;;;;4.80;3.30;;;;;;;29.48;nan;62836.50;4992562;28;20643;-57
2023/06/10 10:54:38;;;;;;;4.55;3.38;;;;;;;28.51;nan;62750.09;4992268;28;20217;-57
2023/06/10 10:57:10;;;;;;;7.00;3.65;;;;;;;28.53;nan;62773.44;4992529;28;20290;-58
2023/06/10 10:59:45;;;;;;;5.28;3.60;;;;;;;27.20;nan;62625.88;4992593;28;20184;-57
2023/06/10 11:02:15;;;;;;;6.00;4.05;;;;;;;26.58;nan;62491.97;4992281;28;20729;-58
2023/06/10 11:04:47;;;;;;;5.10;3.60;;;;;;;26.73;nan;62501.25;4992493;28;20169;-59
2023/06/10 11:07:15;;;;;;;5.25;3.05;;;;;;;25.11;nan;62399.50;4992504;28;20491;-58
2023/06/10 11:10:00;;;;;;;4.97;3.33;;;;;;;26.81;nan;62549.75;4992474;28;20192;-59
2023/06/10 11:12:38;;;;;;;5.93;3.25;;;;;;;26.69;nan;62593.69;4990042;28;20638;-59
2023/06/10 11:15:04;;;;;;;4.43;3.17;;;;;;;27.03;nan;62614.28;4989659;28;20192;-58
2023/06/10 11:17:29;;;;;;;4.30;3.20;;;;;;;26.30;nan;62460.53;4992281;28;20569;-59
2023/06/10 11:19:58;;;;;;;4.47;3.00;;;;;;;26.64;nan;62502.00;4992476;28;20173;-58
2023/06/10 11:22:24;;;;;;;5.07;3.08;;;;;;;26.77;nan;62497.97;4992399;28;20358;-58
2023/06/10 11:24:49;;;;;;;5.50;3.25;;;;;;;;;;4992422;28;20188;-57
2023/06/10 11:27:19;;;;;;;4.88;2.88;;;;;;;26.41;nan;62478.34;4992456;28;20680;-59
2023/06/10 11:30:18;;;;;;;5.70;3.38;;;;;;;26.56;nan;62549.97;4992106;28;20165;-57
2023/06/10 11:32:44;;;;;;;4.28;2.85;;;;;;;26.26;nan;62592.81;4992971;28;20193;-57
2023/06/10 11:35:09;;;;;;;4.55;3.05;;;;;;;26.73;nan;62525.41;4992262;28;20199;-57
2023/06/10 11:37:35;;;;;;;4.88;2.90;;;;;;;26.90;nan;62533.84;4992023;28;20284;-58
2023/06/10 11:40:02;;;;;;;4.05;2.78;;;;;;;26.37;nan;62431.84;4992189;28;20616;-60
2023/06/10 11:42:28;;;;;;;4.85;3.22;;;;;;;26.45;nan;62443.59;4992018;28;20173;-57
2023/06/10 11:44:54;;;;;;;4.18;3.10;;;;;;;27.06;nan;62538.44;4992116;28;20183;-59
2023/06/10 11:47:21;;;;;;;4.55;2.92;;;;;;;27.04;nan;62853.66;4991882;28;20185;-59
2023/06/10 11:49:56;;;;;;;6.28;3.30;;;;;;;27.44;nan;62906.91;4991731;28;20192;-57